Ardmore Seafarer — V7UL5 — position and weather

sailwx.info

Track history (hours):
 
Tides and Currents Weather Stations Pressure Air Temp Water Temp Dewpoint Dewpoint Depression Visibility Wind Speed Wind Dir Waves Ship Positions

Ardmore Seafarer

Last reported at 2017-Oct-18 13:31 UTC. Time now 2017-Oct-19 05:32 UTC.
Position N 29°45' W 095°12'.

Length 179 m; draft 7.2 m.

Type: Tanker. MMSI: 538003971.

Date/timePositionNaut miles runAvg speedWind from/ knotsBaromVisibWave heightAir tempDewpointWater temp
2017-Oct-18 13:31N 29°45' W 095°12'0 0.0
2017-Oct-18 13:28N 29°45' W 095°12'0 0.0
2017-Oct-18 13:00N 29°45' W 095°12'0 0.0
2017-Oct-18 11:47N 29°45' W 095°12'0 0.0
2017-Oct-18 11:27N 29°45' W 095°12'0 0.0
2017-Oct-18 10:58N 29°45' W 095°12'0 0.0
2017-Oct-18 10:30N 29°45' W 095°12'0 0.0
2017-Oct-18 06:10N 29°45' W 095°12'0 0.0
2017-Oct-18 05:47N 29°45' W 095°12'0 0.0
2017-Oct-18 05:26N 29°45' W 095°12'0 0.0
2017-Oct-18 01:55N 29°45' W 095°12'0 0.2
2017-Oct-18 01:30N 29°45' W 095°12'0 0.1
2017-Oct-18 00:56N 29°45' W 095°12'0 0.0
2017-Oct-18 00:29N 29°45' W 095°12'0 0.0
2017-Oct-17 13:18N 29°45' W 095°12'0 0.0
2017-Oct-17 12:53N 29°45' W 095°12'0 0.0
2017-Oct-17 11:55N 29°45' W 095°12'0 0.0
2017-Oct-17 11:29N 29°45' W 095°12'0 0.0
2017-Oct-17 10:59N 29°45' W 095°12'0 0.0
2017-Oct-17 10:30N 29°45' W 095°12'0 0.0
2017-Oct-17 09:57N 29°45' W 095°12'0 0.0
2017-Oct-17 09:30N 29°45' W 095°12'0 0.0
2017-Oct-17 08:59N 29°45' W 095°12'0 0.0
2017-Oct-17 08:30N 29°45' W 095°12'0 0.0
2017-Oct-17 07:56N 29°45' W 095°12'0 0.0
2017-Oct-17 07:31N 29°45' W 095°12'0 0.0
2017-Oct-17 07:00N 29°45' W 095°12'0 0.0
2017-Oct-17 06:30N 29°45' W 095°12'0 0.0
2017-Oct-17 06:00N 29°45' W 095°12'0 0.0
2017-Oct-17 05:30N 29°45' W 095°12'0 0.0
2017-Oct-17 05:00N 29°45' W 095°12'0 0.0
2017-Oct-17 04:30N 29°45' W 095°12'0 0.0
2017-Oct-17 04:00N 29°45' W 095°12'0 0.0
2017-Oct-17 03:31N 29°45' W 095°12'0 0.0
2017-Oct-17 03:01N 29°45' W 095°12'0 0.0
2017-Oct-17 02:30N 29°45' W 095°12'0 0.0
2017-Oct-17 02:00N 29°45' W 095°12'0 0.0
2017-Oct-17 01:22N 29°45' W 095°12'0 0.0
2017-Oct-17 00:58N 29°45' W 095°12'0 0.0
2017-Oct-17 00:18N 29°45' W 095°12'0 0.0
2017-Oct-17 00:00N 29°45' W 095°12'0 0.2
2017-Oct-16 23:30N 29°44' W 095°12'2 4.4
2017-Oct-16 23:00N 29°44' W 095°10'3 6.8
2017-Oct-16 22:31N 29°45' W 095°06'3 6.1
2017-Oct-16 22:01N 29°44' W 095°03'4 7.4
2017-Oct-16 21:30N 29°41' W 094°59'611.9
2017-Oct-16 21:01N 29°36' W 094°57'612.8
2017-Oct-16 20:31N 29°31' W 094°53'713.1
2017-Oct-16 20:00N 29°25' W 094°49'6 0.2
2017-Oct-15 20:21N 29°21' W 094°44'0 0.0
2017-Oct-15 18:44N 29°21' W 094°44'0 0.0
2017-Oct-14 02:48N 29°21' W 094°44'0 0.3
2017-Oct-14 02:22N 29°21' W 094°44'0 0.0
2017-Oct-13 12:57N 29°21' W 094°44'0 0.0
2017-Oct-13 07:32N 29°21' W 094°45'0 0.0
2017-Oct-13 07:28N 29°21' W 094°45'0 0.0
2017-Oct-13 06:51N 29°21' W 094°45'0 0.0
2017-Oct-13 06:29N 29°21' W 094°45'0 0.0
2017-Oct-13 06:00N 29°21' W 094°45'0 0.0
2017-Oct-13 05:30N 29°21' W 094°45'0 0.0
2017-Oct-13 04:57N 29°21' W 094°45'0 0.0
2017-Oct-13 04:30N 29°21' W 094°45'  
Track history (hours):
 
Tides and Currents Weather Stations Pressure Air Temp Water Temp Dewpoint Dewpoint Depression Visibility Wind Speed Wind Dir Waves Ship Positions

Ardmore Seafarer

Last reported at 2017-Oct-18 13:31 UTC. Time now 2017-Oct-19 05:32 UTC.
Position N 29°45' W 095°12'.

Length 179 m; draft 7.2 m.

Type: Tanker. MMSI: 538003971.

Date/timePositionNaut miles runAvg speedWind from/ knotsBaromVisibWave heightAir tempDewpointWater temp
2017-Oct-18 13:31N 29°45' W 095°12'0 0.0
2017-Oct-18 13:28N 29°45' W 095°12'0 0.0
2017-Oct-18 13:00N 29°45' W 095°12'0 0.0
2017-Oct-18 11:47N 29°45' W 095°12'0 0.0
2017-Oct-18 11:27N 29°45' W 095°12'0 0.0
2017-Oct-18 10:58N 29°45' W 095°12'0 0.0
2017-Oct-18 10:30N 29°45' W 095°12'0 0.0
2017-Oct-18 06:10N 29°45' W 095°12'0 0.0
2017-Oct-18 05:47N 29°45' W 095°12'0 0.0
2017-Oct-18 05:26N 29°45' W 095°12'0 0.0
2017-Oct-18 01:55N 29°45' W 095°12'0 0.2
2017-Oct-18 01:30N 29°45' W 095°12'0 0.1
2017-Oct-18 00:56N 29°45' W 095°12'0 0.0
2017-Oct-18 00:29N 29°45' W 095°12'0 0.0
2017-Oct-17 13:18N 29°45' W 095°12'0 0.0
2017-Oct-17 12:53N 29°45' W 095°12'0 0.0
2017-Oct-17 11:55N 29°45' W 095°12'0 0.0
2017-Oct-17 11:29N 29°45' W 095°12'0 0.0
2017-Oct-17 10:59N 29°45' W 095°12'0 0.0
2017-Oct-17 10:30N 29°45' W 095°12'0 0.0
2017-Oct-17 09:57N 29°45' W 095°12'0 0.0
2017-Oct-17 09:30N 29°45' W 095°12'0 0.0
2017-Oct-17 08:59N 29°45' W 095°12'0 0.0
2017-Oct-17 08:30N 29°45' W 095°12'0 0.0
2017-Oct-17 07:56N 29°45' W 095°12'0 0.0
2017-Oct-17 07:31N 29°45' W 095°12'0 0.0
2017-Oct-17 07:00N 29°45' W 095°12'0 0.0
2017-Oct-17 06:30N 29°45' W 095°12'0 0.0
2017-Oct-17 06:00N 29°45' W 095°12'0 0.0
2017-Oct-17 05:30N 29°45' W 095°12'0 0.0
2017-Oct-17 05:00N 29°45' W 095°12'0 0.0
2017-Oct-17 04:30N 29°45' W 095°12'0 0.0
2017-Oct-17 04:00N 29°45' W 095°12'0 0.0
2017-Oct-17 03:31N 29°45' W 095°12'0 0.0
2017-Oct-17 03:01N 29°45' W 095°12'0 0.0
2017-Oct-17 02:30N 29°45' W 095°12'0 0.0
2017-Oct-17 02:00N 29°45' W 095°12'0 0.0
2017-Oct-17 01:22N 29°45' W 095°12'0 0.0
2017-Oct-17 00:58N 29°45' W 095°12'0 0.0
2017-Oct-17 00:18N 29°45' W 095°12'0 0.0
2017-Oct-17 00:00N 29°45' W 095°12'0 0.2
2017-Oct-16 23:30N 29°44' W 095°12'2 4.4
2017-Oct-16 23:00N 29°44' W 095°10'3 6.8
2017-Oct-16 22:31N 29°45' W 095°06'3 6.1
2017-Oct-16 22:01N 29°44' W 095°03'4 7.4
2017-Oct-16 21:30N 29°41' W 094°59'611.9
2017-Oct-16 21:01N 29°36' W 094°57'612.8
2017-Oct-16 20:31N 29°31' W 094°53'713.1
2017-Oct-16 20:00N 29°25' W 094°49'6 0.2
2017-Oct-15 20:21N 29°21' W 094°44'0 0.0
2017-Oct-15 18:44N 29°21' W 094°44'0 0.0
2017-Oct-14 02:48N 29°21' W 094°44'0 0.3
2017-Oct-14 02:22N 29°21' W 094°44'0 0.0
2017-Oct-13 12:57N 29°21' W 094°44'0 0.0
2017-Oct-13 07:32N 29°21' W 094°45'0 0.0
2017-Oct-13 07:28N 29°21' W 094°45'0 0.0
2017-Oct-13 06:51N 29°21' W 094°45'0 0.0
2017-Oct-13 06:29N 29°21' W 094°45'0 0.0
2017-Oct-13 06:00N 29°21' W 094°45'0 0.0
2017-Oct-13 05:30N 29°21' W 094°45'0 0.0
2017-Oct-13 04:57N 29°21' W 094°45'0 0.0
2017-Oct-13 04:30N 29°21' W 094°45'  

Dump ship's entire track history